createdAt,value
2023-01-20T00:02:14.161Z,50.03
2023-01-20T00:04:40.787Z,52.25
2023-01-20T00:07:07.285Z,52.90
2023-01-20T00:09:34.167Z,53.10
2023-01-20T00:12:00.677Z,58.65
2023-01-20T00:14:27.770Z,61.20
2023-01-20T00:16:58.331Z,48.78
2023-01-20T00:19:24.894Z,57.15
2023-01-20T00:21:51.399Z,62.88
2023-01-20T00:24:18.049Z,67.18
2023-01-20T00:26:44.680Z,62.92
2023-01-20T00:29:11.565Z,57.88
2023-01-20T00:31:38.580Z,61.45
2023-01-20T00:34:05.403Z,55.38
2023-01-20T00:36:33.105Z,60.33
2023-01-20T00:39:01.716Z,60.45
2023-01-20T00:41:28.293Z,53.35
2023-01-20T00:43:55.142Z,65.82
2023-01-20T00:46:23.184Z,53.15
2023-01-20T00:48:49.979Z,57.75
2023-01-20T00:51:16.559Z,56.78
2023-01-20T00:53:43.277Z,60.33
2023-01-20T00:56:09.873Z,61.95
2023-01-20T00:58:36.485Z,58.00
2023-01-20T01:01:03.219Z,56.53
2023-01-20T01:03:33.601Z,52.45
2023-01-20T01:06:26.301Z,62.58
2023-01-20T01:08:53.097Z,64.43
2023-01-20T01:11:19.640Z,59.47
2023-01-20T01:13:46.241Z,62.25
2023-01-20T01:16:15.241Z,72.50
2023-01-20T01:18:42.748Z,73.03
2023-01-20T01:21:11.555Z,58.03
2023-01-20T01:23:38.197Z,52.33
2023-01-20T01:26:04.943Z,62.67
2023-01-20T01:28:31.780Z,62.10
2023-01-20T01:31:03.187Z,58.53
2023-01-20T01:33:33.185Z,53.08
2023-01-20T01:36:01.657Z,59.75
2023-01-20T01:38:28.473Z,50.40
2023-01-20T01:40:56.044Z,57.95
2023-01-20T01:45:56.728Z,61.42
2023-01-20T01:48:31.525Z,63.20
2023-01-20T01:51:27.110Z,67.50
2023-01-20T01:53:57.719Z,69.38
2023-01-20T01:56:26.890Z,62.15
2023-01-20T01:58:58.427Z,66.13
2023-01-20T02:01:26.387Z,51.92
2023-01-20T02:04:14.317Z,70.03
2023-01-20T02:06:45.118Z,59.60
2023-01-20T02:09:12.363Z,66.47
2023-01-20T02:11:45.364Z,62.40
2023-01-20T02:14:12.151Z,58.83
2023-01-20T02:16:53.570Z,55.63
2023-01-20T02:19:57.892Z,63.40
2023-01-20T02:22:42.869Z,61.95
2023-01-20T02:25:37.015Z,66.35
2023-01-20T02:28:48.507Z,58.13
2023-01-20T02:31:27.091Z,66.63
2023-01-20T02:34:01.038Z,68.00
2023-01-20T02:36:34.044Z,72.93
2023-01-20T02:39:13.535Z,70.53
2023-01-20T02:42:06.399Z,65.75
2023-01-20T02:44:44.866Z,76.22
2023-01-20T02:47:23.618Z,73.47
2023-01-20T02:50:04.274Z,81.07
2023-01-20T02:52:41.206Z,69.90
2023-01-20T02:55:17.921Z,96.07
2023-01-20T02:57:50.469Z,92.97
2023-01-20T03:00:35.895Z,86.75
2023-01-20T03:03:07.530Z,93.80
2023-01-20T03:05:39.944Z,94.40
2023-01-20T03:08:10.568Z,89.20
2023-01-20T03:10:39.192Z,91.57
2023-01-20T03:13:22.266Z,96.85
2023-01-20T03:16:22.280Z,103.38
2023-01-20T03:18:50.659Z,99.25
2023-01-20T03:21:17.375Z,97.25
2023-01-20T03:23:50.577Z,83.43
2023-01-20T03:26:19.746Z,88.50
2023-01-20T03:28:48.499Z,91.90
2023-01-20T03:31:26.881Z,92.20
2023-01-20T03:33:57.741Z,85.72
2023-01-20T03:36:28.188Z,86.68
2023-01-20T03:38:56.785Z,93.00
2023-01-20T03:41:40.245Z,84.47
2023-01-20T03:44:12.616Z,67.60
2023-01-20T03:49:39.265Z,77.00
2023-01-20T03:52:47.440Z,87.30
2023-01-20T03:55:23.094Z,137.52
2023-01-20T03:58:04.653Z,111.10
2023-01-20T04:00:38.103Z,101.27
2023-01-20T04:03:15.230Z,92.38
2023-01-20T04:05:44.466Z,91.13
2023-01-20T04:08:13.610Z,78.30
2023-01-20T04:10:43.228Z,72.50
2023-01-20T04:13:09.924Z,77.00
2023-01-20T04:15:39.978Z,69.72
2023-01-20T04:18:33.757Z,97.38
2023-01-20T04:21:02.394Z,90.82
2023-01-20T04:23:45.159Z,89.15
2023-01-20T04:26:11.736Z,89.63
2023-01-20T04:28:38.327Z,95.82
2023-01-20T04:31:05.273Z,79.10
2023-01-20T04:33:31.930Z,71.07
2023-01-20T04:35:58.520Z,71.45
2023-01-20T04:38:25.060Z,72.18
2023-01-20T04:40:51.795Z,64.50
2023-01-20T04:43:18.509Z,71.30
2023-01-20T04:45:45.202Z,60.38
2023-01-20T04:48:12.152Z,62.85
2023-01-20T04:50:40.826Z,63.90
2023-01-20T04:53:11.477Z,62.65
2023-01-20T04:55:38.193Z,58.67
2023-01-20T04:58:04.781Z,70.72
2023-01-20T05:00:31.405Z,73.50
2023-01-20T05:02:59.013Z,61.65
2023-01-20T05:05:25.815Z,63.22
2023-01-20T05:07:53.422Z,54.80
2023-01-20T05:10:20.377Z,62.78
2023-01-20T05:12:47.263Z,67.70
2023-01-20T05:15:14.179Z,61.65
2023-01-20T05:17:41.114Z,66.80
2023-01-20T05:20:08.885Z,72.03
2023-01-20T05:22:35.513Z,67.65
2023-01-20T05:25:02.142Z,73.13
2023-01-20T05:27:28.821Z,68.13
2023-01-20T05:29:55.532Z,77.25
2023-01-20T05:32:22.098Z,74.88
2023-01-20T05:34:48.857Z,70.60
2023-01-20T05:37:17.955Z,71.07
2023-01-20T05:39:44.563Z,77.38
2023-01-20T05:42:11.112Z,82.53
2023-01-20T05:44:37.767Z,74.75
2023-01-20T05:47:04.608Z,77.95
2023-01-20T05:49:31.311Z,81.03
2023-01-20T05:51:57.930Z,82.57
2023-01-20T05:54:26.090Z,85.07
2023-01-20T05:56:52.810Z,106.07
2023-01-20T05:59:19.468Z,130.27
2023-01-20T06:01:46.005Z,107.70
2023-01-20T06:04:12.630Z,91.97
2023-01-20T06:06:39.384Z,87.40
2023-01-20T06:09:06.664Z,101.05
2023-01-20T06:11:33.364Z,106.25
2023-01-20T06:13:59.999Z,107.05
2023-01-20T06:16:26.567Z,107.00
2023-01-20T06:18:53.292Z,102.88
2023-01-20T06:21:19.841Z,100.28
2023-01-20T06:23:46.580Z,109.68
2023-01-20T06:26:14.393Z,110.93
2023-01-20T06:28:41.222Z,110.07
2023-01-20T06:31:30.748Z,103.25
2023-01-20T06:33:57.516Z,133.30
2023-01-20T06:36:24.274Z,164.38
2023-01-20T06:38:51.071Z,171.68
2023-01-20T06:41:19.544Z,149.80
2023-01-20T06:43:46.552Z,188.98
2023-01-20T06:46:15.247Z,137.80
2023-01-20T06:48:42.993Z,138.63
2023-01-20T06:51:17.830Z,132.45
2023-01-20T06:53:44.583Z,107.18
2023-01-20T06:56:13.040Z,110.10
2023-01-20T06:58:40.326Z,114.53
2023-01-20T07:01:13.270Z,122.05
2023-01-20T07:03:43.497Z,131.40
2023-01-20T07:06:30.410Z,125.80
2023-01-20T07:08:58.977Z,126.43
2023-01-20T07:11:26.357Z,106.50
2023-01-20T07:13:53.387Z,108.38
2023-01-20T07:16:19.987Z,115.85
2023-01-20T07:18:51.263Z,119.47
2023-01-20T07:21:18.544Z,118.38
2023-01-20T07:23:45.632Z,118.57
2023-01-20T07:26:15.505Z,126.05
2023-01-20T07:28:42.431Z,126.93
2023-01-20T07:31:20.405Z,121.07
2023-01-20T07:33:47.753Z,119.97
2023-01-20T07:36:15.422Z,115.30
2023-01-20T07:38:42.705Z,116.32
2023-01-20T07:41:16.580Z,118.88
2023-01-20T07:46:27.389Z,152.07
2023-01-20T07:48:55.540Z,119.18
2023-01-20T07:51:22.185Z,117.38
2023-01-20T07:53:51.643Z,107.20
2023-01-20T07:56:27.593Z,106.20
2023-01-20T07:58:55.186Z,105.60
2023-01-20T08:01:26.001Z,101.97
2023-01-20T08:03:53.098Z,82.63
2023-01-20T08:06:22.258Z,88.75
2023-01-20T08:08:49.384Z,88.90
2023-01-20T08:11:18.157Z,86.07
2023-01-20T08:13:45.500Z,86.53
2023-01-20T08:16:14.967Z,76.78
2023-01-20T08:18:42.337Z,153.65
2023-01-20T08:21:18.226Z,94.28
2023-01-20T08:23:44.830Z,104.70
2023-01-20T08:26:11.348Z,100.43
2023-01-20T08:28:38.091Z,107.97
2023-01-20T08:31:16.121Z,144.43
2023-01-20T08:33:43.980Z,119.50
2023-01-20T08:36:14.149Z,116.38
2023-01-20T08:38:41.252Z,100.72
2023-01-20T08:41:09.586Z,97.82
2023-01-20T08:43:36.614Z,79.75
2023-01-20T08:46:07.351Z,90.43
2023-01-20T08:48:35.245Z,89.60
2023-01-20T08:51:09.810Z,90.78
2023-01-20T08:53:36.705Z,93.35
2023-01-20T08:56:04.131Z,85.05
2023-01-20T08:58:30.930Z,90.20
2023-01-20T09:00:58.411Z,102.32
2023-01-20T09:03:25.489Z,87.28
2023-01-20T09:05:52.648Z,80.57
2023-01-20T09:08:20.376Z,87.35
2023-01-20T09:10:46.985Z,79.07
2023-01-20T09:13:13.584Z,75.78
2023-01-20T09:15:40.253Z,83.63
2023-01-20T09:18:06.944Z,86.53
2023-01-20T09:20:33.493Z,83.40
2023-01-20T09:23:03.201Z,79.18
2023-01-20T09:25:30.075Z,85.95
2023-01-20T09:28:00.428Z,82.15
2023-01-20T09:30:27.488Z,81.43
2023-01-20T09:32:56.296Z,72.85
2023-01-20T09:35:24.042Z,70.88
2023-01-20T09:38:09.226Z,71.90
2023-01-20T09:41:02.634Z,95.50
2023-01-20T09:43:57.797Z,125.85
2023-01-20T09:46:29.180Z,91.78
2023-01-20T09:49:32.898Z,92.50
2023-01-20T09:52:21.350Z,76.85
2023-01-20T09:54:54.653Z,89.40
2023-01-20T09:57:24.956Z,126.45
2023-01-20T10:00:07.644Z,88.35
2023-01-20T10:02:36.396Z,104.20
2023-01-20T10:05:13.438Z,173.90
2023-01-20T10:07:48.217Z,104.32
2023-01-20T10:10:50.766Z,99.90
2023-01-20T10:13:31.488Z,90.05
2023-01-20T10:16:04.842Z,92.82
2023-01-20T10:18:47.652Z,86.63
2023-01-20T10:21:29.533Z,100.10
2023-01-20T10:24:00.289Z,108.72
2023-01-20T10:26:42.375Z,108.35
2023-01-20T10:29:32.341Z,87.05
2023-01-20T10:32:01.367Z,98.15
2023-01-20T10:34:37.220Z,79.68
2023-01-20T10:37:09.932Z,88.97
2023-01-20T10:39:58.394Z,92.65
2023-01-20T10:42:28.350Z,84.60
2023-01-20T10:44:55.390Z,97.57
2023-01-20T10:47:35.458Z,108.03
2023-01-20T10:50:17.227Z,98.40
2023-01-20T10:53:00.403Z,104.60
2023-01-20T10:55:57.904Z,97.68
2023-01-20T10:58:30.081Z,94.07
2023-01-20T11:00:59.918Z,92.53
2023-01-20T11:03:35.631Z,91.22
2023-01-20T11:06:03.205Z,90.95
2023-01-20T11:08:30.392Z,115.07
2023-01-20T11:11:00.762Z,110.88
2023-01-20T11:13:27.430Z,102.07
2023-01-20T11:15:59.551Z,112.32
2023-01-20T11:18:32.076Z,126.50
2023-01-20T11:21:04.958Z,96.45
2023-01-20T11:23:39.943Z,114.65
2023-01-20T11:26:11.970Z,106.22
2023-01-20T11:28:44.570Z,114.95
2023-01-20T11:31:11.551Z,112.78
2023-01-20T11:33:38.164Z,94.10
2023-01-20T11:36:18.837Z,86.43
2023-01-20T11:38:48.149Z,108.57
2023-01-20T11:41:19.435Z,98.63
2023-01-20T11:43:46.113Z,88.67
2023-01-20T11:46:16.321Z,99.85
2023-01-20T11:48:43.017Z,91.75
2023-01-20T11:51:21.188Z,110.35
2023-01-20T11:53:48.360Z,103.85
2023-01-20T11:56:22.284Z,107.57
2023-01-20T11:58:54.554Z,105.20
2023-01-20T12:01:26.036Z,101.63
2023-01-20T12:04:14.730Z,86.00
2023-01-20T12:06:55.833Z,91.53
2023-01-20T12:09:28.761Z,72.72
2023-01-20T12:12:37.545Z,75.15
2023-01-20T12:15:16.821Z,74.80
2023-01-20T12:17:46.311Z,83.78
2023-01-20T12:20:24.759Z,70.30
2023-01-20T12:23:13.161Z,85.10
2023-01-20T12:25:56.849Z,85.05
2023-01-20T12:28:28.287Z,73.80
2023-01-20T12:31:00.521Z,72.77
2023-01-20T12:33:35.282Z,82.32
2023-01-20T12:36:26.772Z,90.55
2023-01-20T12:39:17.934Z,79.22
2023-01-20T12:41:47.404Z,82.20
2023-01-20T12:44:13.834Z,88.95
2023-01-20T12:46:50.675Z,93.28
2023-01-20T12:49:36.541Z,92.97
2023-01-20T12:52:39.119Z,88.20
2023-01-20T12:55:37.332Z,88.75
2023-01-20T12:58:17.742Z,83.18
2023-01-20T13:01:11.187Z,86.80
2023-01-20T13:03:56.254Z,85.38
2023-01-20T13:06:53.772Z,99.20
2023-01-20T13:09:45.150Z,87.05
2023-01-20T13:12:11.639Z,98.57
2023-01-20T13:15:01.979Z,103.10
2023-01-20T13:17:43.794Z,104.55
2023-01-20T13:20:25.114Z,109.88
2023-01-20T13:22:53.474Z,129.38
2023-01-20T13:25:21.670Z,99.88
2023-01-20T13:27:51.175Z,109.25
2023-01-20T13:30:51.568Z,86.55
2023-01-20T13:33:38.292Z,110.22
2023-01-20T13:36:22.825Z,114.82
2023-01-20T13:39:10.416Z,121.45
2023-01-20T13:41:51.965Z,89.45
2023-01-20T13:44:37.774Z,96.73
2023-01-20T13:47:08.596Z,103.60
2023-01-20T13:49:43.901Z,94.72
2023-01-20T13:52:11.892Z,145.35
2023-01-20T13:54:43.111Z,143.15
2023-01-20T13:57:27.868Z,150.73
2023-01-20T13:59:55.904Z,127.55
2023-01-20T14:02:28.804Z,137.40
2023-01-20T14:04:56.264Z,113.00
2023-01-20T14:07:25.602Z,108.68
2023-01-20T14:09:54.074Z,123.30
2023-01-20T14:12:20.920Z,106.00
2023-01-20T14:14:49.370Z,86.20
2023-01-20T14:17:22.064Z,99.13
2023-01-20T14:19:50.805Z,107.00
2023-01-20T14:22:24.916Z,127.20
2023-01-20T14:24:53.734Z,130.13
2023-01-20T14:27:32.003Z,139.02
2023-01-20T14:30:15.917Z,146.75
2023-01-20T14:32:42.767Z,150.20
2023-01-20T14:35:18.554Z,168.60
2023-01-20T14:37:50.308Z,167.07
2023-01-20T14:40:23.391Z,180.00
2023-01-20T14:43:02.422Z,140.20
2023-01-20T14:45:32.292Z,158.55
2023-01-20T14:48:01.293Z,107.03
2023-01-20T14:50:28.808Z,162.57
2023-01-20T14:52:56.163Z,132.70
2023-01-20T14:55:34.131Z,141.68
2023-01-20T14:58:07.075Z,116.20
2023-01-20T15:00:34.638Z,137.95
2023-01-20T15:03:10.999Z,123.80
2023-01-20T15:05:41.803Z,85.05
2023-01-20T15:08:11.412Z,119.07
2023-01-20T15:10:38.946Z,207.48
2023-01-20T15:13:21.871Z,154.55
2023-01-20T15:15:48.547Z,122.43
2023-01-20T15:18:17.406Z,120.88
2023-01-20T15:20:48.931Z,76.30
2023-01-20T15:23:27.503Z,99.55
2023-01-20T15:25:56.469Z,114.68
2023-01-20T15:28:27.441Z,96.45
2023-01-20T15:33:25.744Z,117.22
2023-01-20T15:36:13.678Z,91.88
2023-01-20T15:38:40.330Z,86.35
2023-01-20T15:41:06.841Z,91.70
2023-01-20T15:43:33.380Z,78.70
2023-01-20T15:45:59.983Z,99.65
2023-01-20T15:48:26.662Z,90.38
2023-01-20T15:50:53.196Z,114.57
2023-01-20T15:53:19.841Z,90.95
2023-01-20T15:55:50.903Z,112.85
2023-01-20T15:58:22.486Z,120.82
2023-01-20T16:00:49.364Z,83.18
2023-01-20T16:03:19.165Z,87.70
2023-01-20T16:05:48.263Z,104.68
2023-01-20T16:08:20.523Z,96.35
2023-01-20T16:10:47.595Z,80.95
2023-01-20T16:13:15.098Z,88.20
2023-01-20T16:15:42.961Z,85.60
2023-01-20T16:18:14.867Z,78.95
2023-01-20T16:20:42.740Z,63.13
2023-01-20T16:23:10.015Z,78.78
2023-01-20T16:25:38.471Z,94.05
2023-01-20T16:28:14.555Z,75.78
2023-01-20T16:30:41.704Z,80.13
2023-01-20T16:33:20.400Z,87.55
2023-01-20T16:38:17.898Z,79.88
2023-01-20T16:40:51.371Z,87.68
2023-01-20T16:43:21.819Z,82.78
2023-01-20T16:45:55.232Z,113.15
2023-01-20T16:48:23.479Z,81.32
2023-01-20T16:50:51.421Z,81.68
2023-01-20T16:53:19.887Z,94.45
2023-01-20T16:55:49.034Z,101.65
2023-01-20T16:58:16.942Z,77.78
2023-01-20T17:00:43.554Z,93.22
2023-01-20T17:03:10.290Z,103.10
2023-01-20T17:05:36.938Z,120.75
2023-01-20T17:08:04.189Z,108.13
2023-01-20T17:10:33.853Z,89.10
2023-01-20T17:13:00.822Z,105.28
2023-01-20T17:15:28.029Z,103.65
2023-01-20T17:17:58.612Z,84.88
2023-01-20T17:20:26.865Z,97.88
2023-01-20T17:22:59.496Z,81.90
2023-01-20T17:25:26.357Z,86.47
2023-01-20T17:27:53.124Z,95.32
2023-01-20T17:30:20.413Z,84.30
2023-01-20T17:32:48.258Z,85.95
2023-01-20T17:35:16.026Z,64.45
2023-01-20T17:37:43.307Z,64.22
2023-01-20T17:40:11.708Z,79.72
2023-01-20T17:42:39.258Z,73.47
2023-01-20T17:45:06.523Z,91.25
2023-01-20T17:47:33.165Z,97.72
2023-01-20T17:49:59.819Z,87.00
2023-01-20T17:52:28.001Z,104.95
2023-01-20T17:54:55.687Z,99.88
2023-01-20T17:57:22.193Z,68.50
2023-01-20T17:59:49.000Z,72.20
2023-01-20T18:02:18.443Z,67.30
2023-01-20T18:04:45.141Z,75.07
2023-01-20T18:07:11.738Z,79.47
2023-01-20T18:09:38.327Z,88.07
2023-01-20T18:12:05.220Z,67.70
2023-01-20T18:14:31.904Z,60.97
2023-01-20T18:16:58.450Z,75.13
2023-01-20T18:19:25.225Z,82.35
2023-01-20T18:21:51.906Z,79.88
2023-01-20T18:24:18.679Z,78.88
2023-01-20T18:26:45.269Z,66.95
2023-01-20T18:29:16.793Z,66.38
2023-01-20T18:31:46.307Z,67.03
2023-01-20T18:34:15.678Z,61.72
2023-01-20T18:36:49.223Z,60.80
2023-01-20T18:39:19.799Z,64.65
2023-01-20T18:41:47.616Z,57.53
2023-01-20T18:44:14.282Z,75.88
2023-01-20T18:46:41.103Z,60.80
2023-01-20T18:49:09.694Z,61.20
2023-01-20T18:51:36.995Z,68.20
2023-01-20T18:54:07.408Z,53.40
2023-01-20T18:56:34.535Z,61.60
2023-01-20T18:59:02.393Z,63.08
2023-01-20T19:01:33.621Z,54.40
2023-01-20T19:04:02.192Z,29.30
2023-01-20T19:06:34.385Z,50.22
2023-01-20T19:11:31.816Z,41.90
2023-01-20T19:13:59.307Z,46.63
2023-01-20T19:16:34.273Z,33.33
2023-01-20T19:19:03.008Z,42.97
2023-01-20T19:21:36.577Z,40.67
2023-01-20T19:24:08.278Z,39.88
2023-01-20T19:26:37.429Z,37.75
2023-01-20T19:29:15.555Z,35.13
2023-01-20T19:31:42.653Z,44.67
2023-01-20T19:34:18.452Z,44.50
2023-01-20T19:36:54.911Z,45.80
2023-01-20T19:39:41.961Z,48.13
2023-01-20T19:42:13.651Z,50.55
2023-01-20T19:44:45.938Z,49.63
2023-01-20T19:47:19.860Z,43.80
2023-01-20T19:49:47.090Z,41.22
2023-01-20T19:52:13.872Z,50.10
2023-01-20T19:54:40.720Z,41.30
2023-01-20T19:57:15.538Z,53.38
2023-01-20T19:59:42.445Z,44.22
2023-01-20T20:02:12.195Z,50.20
2023-01-20T20:04:40.252Z,44.60
2023-01-20T20:07:11.563Z,41.35
2023-01-20T20:09:42.648Z,39.47
2023-01-20T20:12:12.644Z,37.05
2023-01-20T20:14:45.436Z,37.63
2023-01-20T20:17:18.016Z,43.05
2023-01-20T20:19:49.403Z,45.33
2023-01-20T20:22:16.008Z,41.17
2023-01-20T20:24:42.676Z,32.25
2023-01-20T20:27:09.634Z,41.95
2023-01-20T20:29:38.501Z,35.63
2023-01-20T20:32:05.479Z,29.55
2023-01-20T20:34:33.471Z,30.35
2023-01-20T20:37:00.355Z,34.00
2023-01-20T20:39:27.490Z,36.83
2023-01-20T20:41:55.625Z,31.10
2023-01-20T20:44:22.486Z,45.35
2023-01-20T20:46:52.168Z,38.67
2023-01-20T20:49:20.467Z,29.50
2023-01-20T20:51:52.305Z,37.78
2023-01-20T20:54:19.534Z,30.67
2023-01-20T20:56:46.473Z,41.08
2023-01-20T20:59:13.657Z,44.65
2023-01-20T21:01:43.462Z,36.47
2023-01-20T21:04:11.537Z,45.83
2023-01-20T21:06:38.236Z,81.60
2023-01-20T21:09:04.901Z,51.42
2023-01-20T21:11:38.387Z,41.25
2023-01-20T21:14:07.311Z,76.25
2023-01-20T21:16:34.654Z,60.08
2023-01-20T21:19:05.118Z,68.82
2023-01-20T21:21:32.007Z,50.70
2023-01-20T21:23:59.465Z,41.58
2023-01-20T21:26:30.020Z,34.78
2023-01-20T21:29:00.259Z,37.92
2023-01-20T21:31:27.059Z,55.33
2023-01-20T21:33:56.410Z,48.70
2023-01-20T21:36:23.348Z,157.60
2023-01-20T21:38:53.385Z,154.25
2023-01-20T21:41:20.741Z,176.93
2023-01-20T21:44:06.945Z,131.05
2023-01-20T21:46:39.917Z,148.85
2023-01-20T21:49:26.787Z,194.82
2023-01-20T21:52:13.551Z,82.78
2023-01-20T21:54:41.337Z,42.13
2023-01-20T21:57:08.222Z,30.13
2023-01-20T21:59:35.071Z,32.00
2023-01-20T22:02:02.034Z,24.85
2023-01-20T22:04:28.848Z,25.88
2023-01-20T22:06:55.416Z,25.67
2023-01-20T22:09:22.243Z,33.90
2023-01-20T22:11:50.032Z,27.77
2023-01-20T22:14:16.625Z,29.98
2023-01-20T22:16:43.285Z,26.33
2023-01-20T22:19:13.477Z,24.60
2023-01-20T22:21:40.409Z,31.70
2023-01-20T22:24:07.602Z,24.83
2023-01-20T22:26:34.299Z,44.72
2023-01-20T22:29:00.919Z,22.85
2023-01-20T22:31:28.669Z,40.92
2023-01-20T22:33:57.320Z,30.98
2023-01-20T22:36:24.704Z,51.88
2023-01-20T22:38:52.916Z,44.75
2023-01-20T22:41:20.504Z,45.70
2023-01-20T22:43:48.127Z,45.83
2023-01-20T22:46:17.352Z,36.90
2023-01-20T22:48:44.556Z,32.40
2023-01-20T22:51:13.946Z,44.92
2023-01-20T22:53:41.155Z,32.08
2023-01-20T22:56:12.564Z,32.50
2023-01-20T22:58:39.685Z,34.30
2023-01-20T23:01:13.573Z,28.02
2023-01-20T23:03:40.828Z,58.00
2023-01-20T23:06:07.723Z,69.72
2023-01-20T23:08:34.508Z,33.42
2023-01-20T23:11:05.111Z,27.85
2023-01-20T23:13:33.220Z,28.05
2023-01-20T23:15:59.779Z,22.05
2023-01-20T23:18:26.568Z,26.85
2023-01-20T23:20:54.215Z,26.38
2023-01-20T23:23:21.537Z,27.63
2023-01-20T23:25:48.376Z,18.80
2023-01-20T23:28:15.642Z,21.92
2023-01-20T23:30:43.050Z,27.73
2023-01-20T23:33:12.451Z,30.05
2023-01-20T23:35:39.140Z,24.05
2023-01-20T23:38:07.654Z,23.10
2023-01-20T23:40:35.218Z,22.83
2023-01-20T23:43:02.039Z,32.50
2023-01-20T23:45:28.788Z,42.53
2023-01-20T23:47:55.884Z,35.65
2023-01-20T23:50:22.600Z,19.55
2023-01-20T23:52:49.281Z,26.77
2023-01-20T23:55:15.965Z,27.95
2023-01-20T23:57:42.666Z,22.33
